Wetterdaten: aktuell Montag, 27.05.2024 12:05
Datum Zeit Temp. A. Temp. A. min Feuchte A. Luftdruck Regen Wind Richtung Richtung Sonnenschein Solar Taupunkt Windchill Windben
27.05.2024 12:05 19,2 C 18,9 C 73 % 1016,7 hPa 0,0 l/m 0,0 km/h (0 Bft) NO 34 0 min 0 W/m 14,2 C 19,2 C 0,0 km/h (0 Bft)
27.05.2024 12:00 18,9 C 18,9 C 74 % 1016,8 hPa 0,0 l/m 0,4 km/h (0 Bft) NO 46 0 min 0 W/m 14,2 C 18,9 C 3,2 km/h (1 Bft)
27.05.2024 11:55 18,9 C 18,9 C 77 % 1016,8 hPa 0,0 l/m 0,2 km/h (0 Bft) NO 34 0 min 0 W/m 14,8 C 18,9 C 1,6 km/h (1 Bft)
27.05.2024 11:52 19,0 C 18,8 C 74 % 1016,8 hPa 0,0 l/m 0,0 km/h (0 Bft) NO 35 0 min 0 W/m 14,3 C 19,0 C 0,0 km/h (0 Bft)
27.05.2024 11:45 18,8 C 18,7 C 80 % 1016,8 hPa 0,0 l/m 0,0 km/h (0 Bft) N 355 0 min 0 W/m 15,3 C 18,8 C 0,0 km/h (0 Bft)
27.05.2024 11:40 18,7 C 18,5 C 76 % 1016,8 hPa 0,0 l/m 0,0 km/h (0 Bft) NO 42 0 min 0 W/m 14,4 C 18,7 C 0,0 km/h (0 Bft)
27.05.2024 11:35 18,5 C 18,5 C 77 % 1016,9 hPa 0,0 l/m 0,1 km/h (0 Bft) O-NO 66 0 min 0 W/m 14,4 C 18,5 C 1,6 km/h (1 Bft)
27.05.2024 11:30 18,6 C 18,6 C 79 % 1017,1 hPa 0,0 l/m 0,0 km/h (0 Bft) N-NW 346 0 min 0 W/m 14,9 C 18,6 C 0,0 km/h (0 Bft)
27.05.2024 11:28 18,7 C 18,7 C 78 % 1017,1 hPa 0,0 l/m 0,0 km/h (0 Bft) NO 49 0 min 0 W/m 14,8 C 18,7 C 0,0 km/h (0 Bft)
27.05.2024 11:20 19,1 C 19,0 C 77 % 1017,1 hPa 0,0 l/m 0,1 km/h (0 Bft) NO 47 0 min 0 W/m 15,0 C 19,1 C 1,6 km/h (1 Bft)
27.05.2024 11:15 19,1 C 18,9 C 77 % 1017,1 hPa 0,0 l/m 0,0 km/h (0 Bft) N 355 0 min 0 W/m 15,0 C 19,1 C 0,0 km/h (0 Bft)
27.05.2024 11:10 18,9 C 18,8 C 81 % 1017,1 hPa 0,0 l/m 0,0 km/h (0 Bft) NO 50 0 min 0 W/m 15,6 C 18,9 C 0,0 km/h (0 Bft)
27.05.2024 11:08 18,9 C 18,8 C 79 % 1017,1 hPa 0,0 l/m 0,1 km/h (0 Bft) N-NO 33 0 min 0 W/m 15,2 C 18,9 C 1,6 km/h (1 Bft)
27.05.2024 11:00 18,9 C 18,6 C 81 % 1017,2 hPa 0,0 l/m 0,0 km/h (0 Bft) NO 35 0 min 0 W/m 15,6 C 18,9 C 1,6 km/h (1 Bft)
27.05.2024 10:55 18,6 C 18,4 C 79 % 1017,2 hPa 0,0 l/m 0,1 km/h (0 Bft) NO 53 0 min 0 W/m 14,9 C 18,6 C 1,6 km/h (1 Bft)
27.05.2024 10:50 18,4 C 18,3 C 82 % 1017,2 hPa 0,0 l/m 0,0 km/h (0 Bft) N 5 0 min 0 W/m 15,3 C 18,4 C 0,0 km/h (0 Bft)
27.05.2024 10:48 18,3 C 17,9 C 80 % 1017,2 hPa 0,0 l/m 0,0 km/h (0 Bft) N-NW 342 0 min 0 W/m 14,8 C 18,3 C 0,0 km/h (0 Bft)
27.05.2024 10:40 17,9 C 17,9 C 84 % 1017,2 hPa 0,0 l/m 0,0 km/h (0 Bft) NO 40 0 min 0 W/m 15,2 C 17,9 C 0,0 km/h (0 Bft)
27.05.2024 10:35 18,1 C 18,1 C 84 % 1017,2 hPa 0,0 l/m 1,0 km/h (0 Bft) N-NO 30 0 min 0 W/m 15,4 C 18,1 C 9,7 km/h (2 Bft)
27.05.2024 10:30 18,3 C 18,3 C 84 % 1017,3 hPa 0,0 l/m 2,9 km/h (1 Bft) N-NW 344 0 min 0 W/m 15,5 C 18,3 C 9,7 km/h (2 Bft)
27.05.2024 10:28 18,3 C 17,5 C 84 % 1017,2 hPa 0,0 l/m 1,6 km/h (1 Bft) NO 52 0 min 0 W/m 15,5 C 18,3 C 4,8 km/h (1 Bft)
27.05.2024 10:20 17,5 C 17,3 C 87 % 1017,3 hPa 0,0 l/m 0,3 km/h (0 Bft) NO 42 0 min 0 W/m 15,3 C 17,5 C 3,2 km/h (1 Bft)
27.05.2024 10:15 17,3 C 17,2 C 86 % 1017,2 hPa 0,0 l/m 0,3 km/h (0 Bft) N 355 0 min 0 W/m 14,9 C 17,3 C 4,8 km/h (1 Bft)
27.05.2024 10:10 17,2 C 17,2 C 87 % 1017,2 hPa 0,0 l/m 1,6 km/h (1 Bft) N-NO 24 0 min 0 W/m 15,0 C 17,2 C 4,8 km/h (1 Bft)
27.05.2024 10:05 17,3 C 17,2 C 86 % 1017,3 hPa 0,0 l/m 1,7 km/h (1 Bft) N 5 0 min 0 W/m 14,9 C 17,3 C 3,2 km/h (1 Bft)
27.05.2024 10:02 17,6 C 17,4 C 89 % 1017,4 hPa 0,0 l/m 1,0 km/h (0 Bft) N-NO 24 0 min 0 W/m 15,8 C 17,6 C 3,2 km/h (1 Bft)
27.05.2024 09:55 17,4 C 17,2 C 87 % 1017,5 hPa 0,0 l/m 1,9 km/h (1 Bft) N-NW 348 0 min 0 W/m 15,2 C 17,4 C 11,3 km/h (2 Bft)
27.05.2024 09:50 17,2 C 17,0 C 88 % 1017,5 hPa 0,0 l/m 0,8 km/h (0 Bft) N-NO 22 0 min 0 W/m 15,2 C 17,2 C 3,2 km/h (1 Bft)
27.05.2024 09:45 17,0 C 16,9 C 91 % 1017,5 hPa 0,0 l/m 0,4 km/h (0 Bft) N-NW 344 0 min 0 W/m 15,5 C 17,0 C 1,6 km/h (1 Bft)
27.05.2024 09:43 16,9 C 16,6 C 91 % 1017,5 hPa 0,0 l/m 1,5 km/h (1 Bft) N-NO 22 0 min 0 W/m 15,4 C 16,9 C 3,2 km/h (1 Bft)
27.05.2024 09:35 16,6 C 16,3 C 93 % 1017,6 hPa 0,0 l/m 0,2 km/h (0 Bft) N 5 0 min 0 W/m 15,5 C 16,6 C 3,2 km/h (1 Bft)
27.05.2024 09:30 16,3 C 15,8 C 92 % 1017,6 hPa 0,0 l/m 1,2 km/h (1 Bft) N-NW 338 0 min 0 W/m 15,0 C 16,3 C 6,4 km/h (2 Bft)
27.05.2024 09:25 15,8 C 15,7 C 95 % 1017,6 hPa 0,0 l/m 0,0 km/h (0 Bft) N 11 0 min 0 W/m 15,0 C 15,8 C 0,0 km/h (0 Bft)
27.05.2024 09:23 15,7 C 15,6 C 94 % 1017,6 hPa 0,0 l/m 0,3 km/h (0 Bft) N-NO 12 0 min 0 W/m 14,7 C 15,7 C 3,2 km/h (1 Bft)
27.05.2024 09:15 15,6 C 15,6 C 94 % 1017,7 hPa 0,0 l/m 0,9 km/h (0 Bft) N-NO 13 0 min 0 W/m 14,6 C 15,6 C 3,2 km/h (1 Bft)
27.05.2024 09:10 15,6 C 15,6 C 94 % 1017,7 hPa 0,0 l/m 0,2 km/h (0 Bft) N 360 0 min 0 W/m 14,6 C 15,6 C 1,6 km/h (1 Bft)
27.05.2024 09:05 15,6 C 15,6 C 94 % 1017,6 hPa 0,0 l/m 0,0 km/h (0 Bft) N 11 0 min 0 W/m 14,6 C 15,6 C 0,0 km/h (0 Bft)
27.05.2024 09:03 15,6 C 15,4 C 94 % 1017,6 hPa 0,0 l/m 0,0 km/h (0 Bft) N 11 0 min 0 W/m 14,6 C 15,6 C 0,0 km/h (0 Bft)
27.05.2024 08:55 15,5 C 15,4 C 94 % 1017,5 hPa 0,0 l/m 0,0 km/h (0 Bft) O-NO 57 0 min 0 W/m 14,5 C 15,5 C 0,0 km/h (0 Bft)
27.05.2024 08:50 15,4 C 15,4 C 94 % 1017,6 hPa 0,0 l/m 0,0 km/h (0 Bft) NO 49 0 min 0 W/m 14,4 C 15,4 C 1,6 km/h (1 Bft)
27.05.2024 08:45 15,4 C 15,4 C 94 % 1017,6 hPa 0,0 l/m 0,0 km/h (0 Bft) NO 43 0 min 0 W/m 14,4 C 15,4 C 0,0 km/h (0 Bft)
27.05.2024 08:42 15,4 C 15,3 C 94 % 1017,6 hPa 0,0 l/m 0,0 km/h (0 Bft) NO 43 0 min 0 W/m 14,4 C 15,4 C 0,0 km/h (0 Bft)
27.05.2024 08:35 15,3 C 15,2 C 94 % 1017,6 hPa 0,0 l/m 0,4 km/h (0 Bft) NO 49 0 min 0 W/m 14,3 C 15,3 C 3,2 km/h (1 Bft)
27.05.2024 08:30 15,2 C 15,2 C 94 % 1017,6 hPa 0,0 l/m 0,0 km/h (0 Bft) NO 44 0 min 0 W/m 14,2 C 15,2 C 0,0 km/h (0 Bft)
27.05.2024 08:25 15,2 C 15,1 C 94 % 1017,6 hPa 0,0 l/m 0,0 km/h (0 Bft) NW 325 0 min 0 W/m 14,2 C 15,2 C 0,0 km/h (0 Bft)
27.05.2024 08:20 15,1 C 15,0 C 94 % 1017,5 hPa 0,0 l/m 0,0 km/h (0 Bft) W-NW 295 0 min 0 W/m 14,1 C 15,1 C 0,0 km/h (0 Bft)
27.05.2024 08:18 15,0 C 15,0 C 94 % 1017,5 hPa 0,0 l/m 0,0 km/h (0 Bft) W-NW 286 0 min 0 W/m 14,0 C 15,0 C 0,0 km/h (0 Bft)
27.05.2024 08:10 15,0 C 14,9 C 94 % 1017,5 hPa 0,0 l/m 0,2 km/h (0 Bft) W 273 0 min 0 W/m 14,0 C 15,0 C 3,2 km/h (1 Bft)
27.05.2024 08:05 14,9 C 14,9 C 94 % 1017,6 hPa 0,0 l/m 0,1 km/h (0 Bft) S 187 0 min 0 W/m 13,9 C 14,9 C 3,2 km/h (1 Bft)
27.05.2024 08:00 14,9 C 14,9 C 94 % 1017,5 hPa 0,0 l/m 0,0 km/h (0 Bft) S 186 0 min 0 W/m 13,9 C 14,9 C 0,0 km/h (0 Bft)
27.05.2024 07:58 14,9 C 14,8 C 94 % 1017,5 hPa 0,0 l/m 0,0 km/h (0 Bft) S 186 0 min 0 W/m 13,9 C 14,9 C 0,0 km/h (0 Bft)
27.05.2024 07:50 14,8 C 14,8 C 94 % 1017,4 hPa 0,0 l/m 0,0 km/h (0 Bft) S 186 0 min 0 W/m 13,8 C 14,8 C 0,0 km/h (0 Bft)
27.05.2024 07:45 14,8 C 14,7 C 94 % 1017,4 hPa 0,0 l/m 0,2 km/h (0 Bft) S 186 0 min 0 W/m 13,8 C 14,8 C 3,2 km/h (1 Bft)
27.05.2024 07:40 14,7 C 14,7 C 94 % 1017,3 hPa 0,0 l/m 0,0 km/h (0 Bft) S 174 0 min 0 W/m 13,7 C 14,7 C 0,0 km/h (0 Bft)
27.05.2024 07:38 14,7 C 14,7 C 94 % 1017,3 hPa 0,0 l/m 0,0 km/h (0 Bft) S 171 0 min 0 W/m 13,7 C 14,7 C 0,0 km/h (0 Bft)
27.05.2024 07:30 14,7 C 14,7 C 93 % 1017,3 hPa 0,0 l/m 0,0 km/h (0 Bft) S 171 0 min 0 W/m 13,6 C 14,7 C 0,0 km/h (0 Bft)
27.05.2024 07:25 14,7 C 14,7 C 93 % 1017,3 hPa 0,0 l/m 0,0 km/h (0 Bft) S 171 0 min 0 W/m 13,6 C 14,7 C 0,0 km/h (0 Bft)
27.05.2024 07:20 14,7 C 14,6 C 93 % 1017,2 hPa 0,0 l/m 0,0 km/h (0 Bft) S 171 0 min 0 W/m 13,6 C 14,7 C 0,0 km/h (0 Bft)
27.05.2024 07:15 14,6 C 14,6 C 93 % 1017,2 hPa 0,0 l/m 0,0 km/h (0 Bft) S 171 0 min 0 W/m 13,5 C 14,6 C 0,0 km/h (0 Bft)
27.05.2024 07:10 14,7 C 14,6 C 93 % 1017,2 hPa 0,0 l/m 0,1 km/h (0 Bft) S 170 0 min 0 W/m 13,6 C 14,7 C 1,6 km/h (1 Bft)
27.05.2024 07:05 14,6 C 14,6 C 93 % 1017,1 hPa 0,0 l/m 0,7 km/h (0 Bft) S-SW 199 0 min 0 W/m 13,5 C 14,6 C 3,2 km/h (1 Bft)
27.05.2024 07:00 14,6 C 14,5 C 93 % 1017,1 hPa 0,0 l/m 0,2 km/h (0 Bft) S 186 0 min 0 W/m 13,5 C 14,6 C 4,8 km/h (1 Bft)
27.05.2024 06:55 14,5 C 14,5 C 93 % 1017,1 hPa 0,0 l/m 0,0 km/h (0 Bft) S-SO 153 0 min 0 W/m 13,4 C 14,5 C 0,0 km/h (0 Bft)
27.05.2024 06:50 14,5 C 14,4 C 93 % 1017,1 hPa 0,0 l/m 0,0 km/h (0 Bft) S-SO 150 0 min 0 W/m 13,4 C 14,5 C 0,0 km/h (0 Bft)
27.05.2024 06:45 14,4 C 14,4 C 93 % 1017,2 hPa 0,0 l/m 0,1 km/h (0 Bft) S-SO 148 0 min 0 W/m 13,3 C 14,4 C 1,6 km/h (1 Bft)
27.05.2024 06:40 14,4 C 14,4 C 93 % 1017,2 hPa 0,0 l/m 0,0 km/h (0 Bft) SW 231 0 min 0 W/m 13,3 C 14,4 C 1,6 km/h (1 Bft)
27.05.2024 06:35 14,4 C 14,4 C 93 % 1017,2 hPa 0,0 l/m 0,0 km/h (0 Bft) SW 231 0 min 0 W/m 13,3 C 14,4 C 0,0 km/h (0 Bft)
27.05.2024 06:30 14,4 C 14,4 C 93 % 1017,2 hPa 0,0 l/m 0,0 km/h (0 Bft) SW 231 0 min 0 W/m 13,3 C 14,4 C 0,0 km/h (0 Bft)
27.05.2024 06:25 14,4 C 14,4 C 93 % 1017,2 hPa 0,0 l/m 0,0 km/h (0 Bft) SW 231 0 min 0 W/m 13,3 C 14,4 C 0,0 km/h (0 Bft)
27.05.2024 06:20 14,4 C 14,4 C 93 % 1017,1 hPa 0,0 l/m 0,0 km/h (0 Bft) SW 232 0 min 0 W/m 13,3 C 14,4 C 0,0 km/h (0 Bft)
27.05.2024 06:15 14,4 C 14,4 C 93 % 1017,0 hPa 0,0 l/m 0,0 km/h (0 Bft) SW 232 0 min 0 W/m 13,3 C 14,4 C 0,0 km/h (0 Bft)
27.05.2024 06:10 14,4 C 14,4 C 92 % 1017,1 hPa 0,0 l/m 0,0 km/h (0 Bft) SW 228 0 min 0 W/m 13,1 C 14,4 C 0,0 km/h (0 Bft)
27.05.2024 06:05 14,4 C 14,4 C 92 % 1017,1 hPa 0,0 l/m 0,2 km/h (0 Bft) SW 228 0 min 0 W/m 13,1 C 14,4 C 3,2 km/h (1 Bft)
27.05.2024 06:00 14,4 C 14,4 C 92 % 1017,1 hPa 0,0 l/m 0,5 km/h (0 Bft) SW 228 0 min 0 W/m 13,1 C 14,4 C 1,6 km/h (1 Bft)
27.05.2024 05:55 14,4 C 14,4 C 92 % 1017,1 hPa 0,0 l/m 0,0 km/h (0 Bft) S-SW 195 0 min 0 W/m 13,1 C 14,4 C 0,0 km/h (0 Bft)
27.05.2024 05:50 14,4 C 14,4 C 92 % 1017,2 hPa 0,0 l/m 0,0 km/h (0 Bft) S-SW 195 0 min 0 W/m 13,1 C 14,4 C 0,0 km/h (0 Bft)
27.05.2024 05:45 14,4 C 14,4 C 92 % 1017,2 hPa 0,0 l/m 0,0 km/h (0 Bft) S-SW 195 0 min 0 W/m 13,1 C 14,4 C 0,0 km/h (0 Bft)
27.05.2024 05:40 14,4 C 14,4 C 92 % 1017,1 hPa 0,0 l/m 0,0 km/h (0 Bft) S-SW 195 0 min 0 W/m 13,1 C 14,4 C 0,0 km/h (0 Bft)
27.05.2024 05:35 14,4 C 14,4 C 92 % 1017,0 hPa 0,0 l/m 0,0 km/h (0 Bft) SW 219 0 min 0 W/m 13,1 C 14,4 C 0,0 km/h (0 Bft)
27.05.2024 05:30 14,4 C 14,4 C 92 % 1017,0 hPa 0,0 l/m 0,0 km/h (0 Bft) SW 219 0 min 0 W/m 13,1 C 14,4 C 0,0 km/h (0 Bft)
27.05.2024 05:25 14,5 C 14,4 C 92 % 1017,0 hPa 0,0 l/m 0,0 km/h (0 Bft) SW 219 0 min 0 W/m 13,2 C 14,5 C 0,0 km/h (0 Bft)
27.05.2024 05:20 14,5 C 14,5 C 92 % 1017,1 hPa 0,2 l/m 0,0 km/h (0 Bft) SW 219 0 min 0 W/m 13,2 C 14,5 C 0,0 km/h (0 Bft)
27.05.2024 05:15 14,5 C 14,5 C 92 % 1017,0 hPa 0,0 l/m 0,0 km/h (0 Bft) SW 219 0 min 0 W/m 13,2 C 14,5 C 0,0 km/h (0 Bft)
27.05.2024 05:10 14,5 C 14,5 C 92 % 1017,0 hPa 0,0 l/m 0,0 km/h (0 Bft) SW 219 0 min 0 W/m 13,2 C 14,5 C 0,0 km/h (0 Bft)
27.05.2024 05:05 14,5 C 14,5 C 92 % 1017,0 hPa 0,0 l/m 0,0 km/h (0 Bft) SW 219 0 min 0 W/m 13,2 C 14,5 C 0,0 km/h (0 Bft)
27.05.2024 05:00 14,6 C 14,6 C 92 % 1017,0 hPa 0,0 l/m 0,0 km/h (0 Bft) SW 219 0 min 0 W/m 13,3 C 14,6 C 0,0 km/h (0 Bft)
27.05.2024 04:55 14,6 C 14,5 C 92 % 1017,1 hPa 0,2 l/m 0,0 km/h (0 Bft) SW 217 0 min 0 W/m 13,3 C 14,6 C 0,0 km/h (0 Bft)
27.05.2024 04:50 14,6 C 14,6 C 92 % 1017,1 hPa 0,2 l/m 0,0 km/h (0 Bft) SW 217 0 min 0 W/m 13,3 C 14,6 C 0,0 km/h (0 Bft)
27.05.2024 04:45 14,6 C 14,6 C 92 % 1017,1 hPa 0,0 l/m 0,0 km/h (0 Bft) SW 217 0 min 0 W/m 13,3 C 14,6 C 0,0 km/h (0 Bft)
27.05.2024 04:40 14,6 C 14,6 C 92 % 1017,2 hPa 0,0 l/m 0,0 km/h (0 Bft) SW 217 0 min 0 W/m 13,3 C 14,6 C 0,0 km/h (0 Bft)
27.05.2024 04:35 14,6 C 14,6 C 91 % 1017,1 hPa 0,0 l/m 0,0 km/h (0 Bft) SW 217 0 min 0 W/m 13,1 C 14,6 C 0,0 km/h (0 Bft)
27.05.2024 04:30 14,6 C 14,6 C 91 % 1017,1 hPa 0,0 l/m 0,0 km/h (0 Bft) SW 217 0 min 0 W/m 13,1 C 14,6 C 0,0 km/h (0 Bft)
27.05.2024 04:25 14,6 C 14,6 C 91 % 1017,2 hPa 0,0 l/m 0,0 km/h (0 Bft) SW 217 0 min 0 W/m 13,1 C 14,6 C 0,0 km/h (0 Bft)
27.05.2024 04:20 14,6 C 14,6 C 91 % 1017,2 hPa 0,0 l/m 0,0 km/h (0 Bft) SW 217 0 min 0 W/m 13,1 C 14,6 C 0,0 km/h (0 Bft)
27.05.2024 04:15 14,6 C 14,6 C 91 % 1017,2 hPa 0,0 l/m 0,0 km/h (0 Bft) SW 217 0 min 0 W/m 13,1 C 14,6 C 0,0 km/h (0 Bft)
27.05.2024 04:10 14,6 C 14,6 C 91 % 1017,1 hPa 0,0 l/m 0,0 km/h (0 Bft) SW 217 0 min 0 W/m 13,1 C 14,6 C 0,0 km/h (0 Bft)
27.05.2024 04:05 14,6 C 14,6 C 91 % 1017,0 hPa 0,0 l/m 0,0 km/h (0 Bft) SW 217 0 min 0 W/m 13,1 C 14,6 C 0,0 km/h (0 Bft)
27.05.2024 04:00 14,7 C 14,6 C 91 % 1017,0 hPa 0,0 l/m 0,0 km/h (0 Bft) SW 217 0 min 0 W/m 13,2 C 14,7 C 0,0 km/h (0 Bft)
27.05.2024 03:55 14,7 C 14,7 C 91 % 1016,9 hPa 0,0 l/m 0,0 km/h (0 Bft) SW 217 0 min 0 W/m 13,2 C 14,7 C 0,0 km/h (0 Bft)
27.05.2024 03:50 14,7 C 14,7 C 91 % 1016,8 hPa 0,0 l/m 0,0 km/h (0 Bft) SW 217 0 min 0 W/m 13,2 C 14,7 C 0,0 km/h (0 Bft)
27.05.2024 03:45 14,7 C 14,7 C 91 % 1016,8 hPa 0,0 l/m 0,0 km/h (0 Bft) SW 217 0 min 0 W/m 13,2 C 14,7 C 0,0 km/h (0 Bft)
27.05.2024 03:40 14,7 C 14,7 C 91 % 1016,8 hPa 0,0 l/m 0,0 km/h (0 Bft) SW 217 0 min 0 W/m 13,2 C 14,7 C 0,0 km/h (0 Bft)
27.05.2024 03:35 14,7 C 14,7 C 91 % 1016,8 hPa 0,0 l/m 0,0 km/h (0 Bft) SW 217 0 min 0 W/m 13,2 C 14,7 C 0,0 km/h (0 Bft)
27.05.2024 03:30 14,7 C 14,7 C 91 % 1016,7 hPa 0,0 l/m 0,0 km/h (0 Bft) SW 217 0 min 0 W/m 13,2 C 14,7 C 0,0 km/h (0 Bft)
27.05.2024 03:25 14,7 C 14,7 C 91 % 1016,6 hPa 0,0 l/m 0,0 km/h (0 Bft) SW 217 0 min 0 W/m 13,2 C 14,7 C 0,0 km/h (0 Bft)
27.05.2024 03:20 14,8 C 14,8 C 91 % 1016,5 hPa 0,0 l/m 0,0 km/h (0 Bft) SW 217 0 min 0 W/m 13,3 C 14,8 C 0,0 km/h (0 Bft)
27.05.2024 03:15 14,8 C 14,7 C 91 % 1016,6 hPa 0,0 l/m 0,0 km/h (0 Bft) SW 217 0 min 0 W/m 13,3 C 14,8 C 0,0 km/h (0 Bft)
27.05.2024 03:10 14,8 C 14,7 C 91 % 1016,6 hPa 0,0 l/m 0,0 km/h (0 Bft) SW 217 0 min 0 W/m 13,3 C 14,8 C 0,0 km/h (0 Bft)
27.05.2024 03:05 14,8 C 14,7 C 91 % 1016,7 hPa 0,0 l/m 0,0 km/h (0 Bft) SW 217 0 min 0 W/m 13,3 C 14,8 C 0,0 km/h (0 Bft)
27.05.2024 03:00 14,8 C 14,7 C 91 % 1016,6 hPa 0,0 l/m 0,0 km/h (0 Bft) SW 217 0 min 0 W/m 13,3 C 14,8 C 0,0 km/h (0 Bft)
27.05.2024 02:55 14,8 C 14,8 C 92 % 1016,7 hPa 0,0 l/m 0,0 km/h (0 Bft) SW 217 0 min 0 W/m 13,5 C 14,8 C 0,0 km/h (0 Bft)
27.05.2024 02:50 14,8 C 14,8 C 92 % 1016,6 hPa 0,0 l/m 0,0 km/h (0 Bft) SW 217 0 min 0 W/m 13,5 C 14,8 C 0,0 km/h (0 Bft)
27.05.2024 02:45 14,8 C 14,8 C 92 % 1016,6 hPa 0,0 l/m 0,0 km/h (0 Bft) SW 217 0 min 0 W/m 13,5 C 14,8 C 0,0 km/h (0 Bft)
27.05.2024 02:40 14,8 C 14,7 C 91 % 1016,7 hPa 0,0 l/m 0,0 km/h (0 Bft) SW 217 0 min 0 W/m 13,3 C 14,8 C 0,0 km/h (0 Bft)
27.05.2024 02:35 14,8 C 14,7 C 91 % 1016,7 hPa 0,0 l/m 0,0 km/h (0 Bft) SW 217 0 min 0 W/m 13,3 C 14,8 C 0,0 km/h (0 Bft)
27.05.2024 02:30 14,8 C 14,7 C 91 % 1016,8 hPa 0,0 l/m 0,0 km/h (0 Bft) SW 217 0 min 0 W/m 13,3 C 14,8 C 0,0 km/h (0 Bft)
27.05.2024 02:25 14,8 C 14,7 C 91 % 1016,8 hPa 0,0 l/m 0,0 km/h (0 Bft) SW 217 0 min 0 W/m 13,3 C 14,8 C 0,0 km/h (0 Bft)
27.05.2024 02:20 14,7 C 14,7 C 91 % 1016,9 hPa 0,0 l/m 0,0 km/h (0 Bft) SW 217 0 min 0 W/m 13,2 C 14,7 C 0,0 km/h (0 Bft)
27.05.2024 02:15 14,8 C 14,7 C 91 % 1016,8 hPa 0,0 l/m 0,0 km/h (0 Bft) SW 217 0 min 0 W/m 13,3 C 14,8 C 0,0 km/h (0 Bft)
27.05.2024 02:10 14,8 C 14,7 C 91 % 1016,8 hPa 0,0 l/m 0,0 km/h (0 Bft) SW 217 0 min 0 W/m 13,3 C 14,8 C 0,0 km/h (0 Bft)
27.05.2024 02:05 14,7 C 14,7 C 91 % 1016,8 hPa 0,0 l/m 0,0 km/h (0 Bft) SW 217 0 min 0 W/m 13,2 C 14,7 C 0,0 km/h (0 Bft)
27.05.2024 02:00 14,8 C 14,7 C 91 % 1016,8 hPa 0,0 l/m 0,0 km/h (0 Bft) SW 216 0 min 0 W/m 13,3 C 14,8 C 0,0 km/h (0 Bft)
27.05.2024 01:55 14,8 C 14,7 C 91 % 1016,8 hPa 0,0 l/m 0,0 km/h (0 Bft) SW 216 0 min 0 W/m 13,3 C 14,8 C 0,0 km/h (0 Bft)
27.05.2024 01:50 14,8 C 14,7 C 91 % 1016,9 hPa 0,0 l/m 0,0 km/h (0 Bft) SW 216 0 min 0 W/m 13,3 C 14,8 C 0,0 km/h (0 Bft)
27.05.2024 01:45 14,7 C 14,7 C 91 % 1016,9 hPa 0,0 l/m 0,0 km/h (0 Bft) SW 216 0 min 0 W/m 13,2 C 14,7 C 0,0 km/h (0 Bft)
27.05.2024 01:40 14,8 C 14,8 C 91 % 1016,9 hPa 0,0 l/m 0,4 km/h (0 Bft) SW 216 0 min 0 W/m 13,3 C 14,8 C 3,2 km/h (1 Bft)
27.05.2024 01:35 14,8 C 14,8 C 91 % 1016,9 hPa 0,0 l/m 0,4 km/h (0 Bft) SW 216 0 min 0 W/m 13,3 C 14,8 C 1,6 km/h (1 Bft)
27.05.2024 01:30 14,8 C 14,8 C 91 % 1016,9 hPa 0,0 l/m 0,0 km/h (0 Bft) SW 218 0 min 0 W/m 13,3 C 14,8 C 1,6 km/h (1 Bft)
27.05.2024 01:25 14,8 C 14,8 C 91 % 1016,8 hPa 0,0 l/m 0,1 km/h (0 Bft) SW 218 0 min 0 W/m 13,3 C 14,8 C 1,6 km/h (1 Bft)
27.05.2024 01:20 14,8 C 14,8 C 91 % 1016,8 hPa 0,0 l/m 0,9 km/h (0 Bft) SW 221 0 min 0 W/m 13,3 C 14,8 C 4,8 km/h (1 Bft)
27.05.2024 01:15 14,8 C 14,8 C 91 % 1016,9 hPa 0,0 l/m 0,0 km/h (0 Bft) S-SW 203 0 min 0 W/m 13,3 C 14,8 C 0,0 km/h (0 Bft)
27.05.2024 01:10 14,8 C 14,8 C 91 % 1016,9 hPa 0,0 l/m 0,0 km/h (0 Bft) S-SW 203 0 min 0 W/m 13,3 C 14,8 C 0,0 km/h (0 Bft)
27.05.2024 01:05 14,8 C 14,8 C 91 % 1016,9 hPa 0,0 l/m 0,0 km/h (0 Bft) S-SW 202 0 min 0 W/m 13,3 C 14,8 C 0,0 km/h (0 Bft)
27.05.2024 01:00 14,8 C 14,8 C 91 % 1016,9 hPa 0,0 l/m 0,0 km/h (0 Bft) S-SW 194 0 min 0 W/m 13,3 C 14,8 C 0,0 km/h (0 Bft)
27.05.2024 00:55 14,8 C 14,8 C 91 % 1016,9 hPa 0,0 l/m 0,0 km/h (0 Bft) S-SW 193 0 min 0 W/m 13,3 C 14,8 C 0,0 km/h (0 Bft)
27.05.2024 00:50 14,8 C 14,8 C 91 % 1016,9 hPa 0,0 l/m 0,0 km/h (0 Bft) S-SW 193 0 min 0 W/m 13,3 C 14,8 C 0,0 km/h (0 Bft)
27.05.2024 00:45 14,8 C 14,8 C 91 % 1016,8 hPa 0,0 l/m 0,0 km/h (0 Bft) S-SW 193 0 min 0 W/m 13,3 C 14,8 C 0,0 km/h (0 Bft)
27.05.2024 00:40 14,8 C 14,8 C 91 % 1016,8 hPa 0,0 l/m 0,0 km/h (0 Bft) S-SW 193 0 min 0 W/m 13,3 C 14,8 C 0,0 km/h (0 Bft)
27.05.2024 00:35 14,8 C 14,8 C 91 % 1016,8 hPa 0,0 l/m 0,0 km/h (0 Bft) S-SW 193 0 min 0 W/m 13,3 C 14,8 C 0,0 km/h (0 Bft)
27.05.2024 00:30 14,8 C 14,8 C 90 % 1016,8 hPa 0,0 l/m 0,0 km/h (0 Bft) S-SW 193 0 min 0 W/m 13,2 C 14,8 C 0,0 km/h (0 Bft)
27.05.2024 00:25 14,8 C 14,8 C 90 % 1016,7 hPa 0,0 l/m 0,0 km/h (0 Bft) S-SW 193 0 min 0 W/m 13,2 C 14,8 C 0,0 km/h (0 Bft)
27.05.2024 00:20 14,9 C 14,8 C 90 % 1016,7 hPa 0,0 l/m 0,0 km/h (0 Bft) S-SW 194 0 min 0 W/m 13,3 C 14,9 C 0,0 km/h (0 Bft)
27.05.2024 00:15 14,9 C 14,8 C 90 % 1016,7 hPa 0,0 l/m 0,0 km/h (0 Bft) S-SW 194 0 min 0 W/m 13,3 C 14,9 C 0,0 km/h (0 Bft)
27.05.2024 00:10 14,9 C 14,9 C 90 % 1016,6 hPa 0,0 l/m 0,0 km/h (0 Bft) S-SW 194 0 min 0 W/m 13,3 C 14,9 C 0,0 km/h (0 Bft)
27.05.2024 00:05 14,9 C 14,9 C 90 % 1016,6 hPa 0,0 l/m 0,0 km/h (0 Bft) S-SW 193 0 min 0 W/m 13,3 C 14,9 C 0,0 km/h (0 Bft)
27.05.2024 00:00 15,0 C 14,9 C 90 % 1016,6 hPa 0,0 l/m 0,0 km/h (0 Bft) S 190 0 min 0 W/m 13,4 C 15,0 C 0,0 km/h (0 Bft)
_ Min-Zeit 05:25 05:25 12:05 03:20 - 00:00 - - - - 05:30 05:30 00:00
Minimum _ 14,4 C 14,4 C 73 % 1016,5 hPa - 0,0 km/h (0 Bft) - - - - 13,1 C 14,4 C 0,0 km/h (0 Bft)
_ Max-Zeit 12:05 11:20 09:25 09:10 04:50 10:30 - - 00:00 00:00 10:02 12:05 09:55
Maximum _ 19,2 C 19,0 C 95 % 1017,7 hPa 0,2 l/m 2,9 km/h
N-NW (1 Bft)
- - 0 min 0 W/m 15,8 C 19,2 C 11,3 km/h
NW (2 Bft)
Durchschnitt _ 15,5 C 15,5 C 90 % 1017,1 hPa #0,6 l/m 0,2 km/h (0 Bft) N-NW - #0 min. 0 W/m 13,8 C 15,5 C 0,9 km/h (0 Bft)